sensor_id;sensor_type;location;lat;lon;timestamp;P1;durP1;ratioP1;P2;durP2;ratioP2
70010;SDS011;59543;37.950;-122.338;2023-10-19T00:01:21;6.43;;;1.30;;
70010;SDS011;59543;37.950;-122.338;2023-10-19T00:03:52;8.70;;;1.42;;
70010;SDS011;59543;37.950;-122.338;2023-10-19T00:06:21;9.60;;;1.42;;
70010;SDS011;59543;37.950;-122.338;2023-10-19T00:08:51;11.40;;;1.40;;
70010;SDS011;59543;37.950;-122.338;2023-10-19T00:11:18;11.57;;;1.58;;
70010;SDS011;59543;37.950;-122.338;2023-10-19T00:13:49;17.17;;;2.22;;
70010;SDS011;59543;37.950;-122.338;2023-10-19T00:16:15;14.48;;;2.13;;
70010;SDS011;59543;37.950;-122.338;2023-10-19T00:18:45;12.02;;;2.63;;
70010;SDS011;59543;37.950;-122.338;2023-10-19T00:21:15;14.20;;;1.70;;
70010;SDS011;59543;37.950;-122.338;2023-10-19T00:23:52;10.68;;;2.97;;
70010;SDS011;59543;37.950;-122.338;2023-10-19T00:26:27;19.92;;;1.88;;
70010;SDS011;59543;37.950;-122.338;2023-10-19T00:28:55;18.30;;;1.80;;
70010;SDS011;59543;37.950;-122.338;2023-10-19T00:31:22;9.77;;;1.63;;
70010;SDS011;59543;37.950;-122.338;2023-10-19T00:33:49;30.30;;;2.17;;
70010;SDS011;59543;37.950;-122.338;2023-10-19T00:36:20;13.75;;;1.95;;
70010;SDS011;59543;37.950;-122.338;2023-10-19T00:38:47;11.88;;;1.52;;
70010;SDS011;59543;37.950;-122.338;2023-10-19T00:41:14;10.55;;;1.60;;
70010;SDS011;59543;37.950;-122.338;2023-10-19T00:46:32;18.00;;;2.30;;
70010;SDS011;59543;37.950;-122.338;2023-10-19T00:49:03;25.05;;;3.17;;
70010;SDS011;59543;37.950;-122.338;2023-10-19T00:51:41;18.45;;;2.15;;
70010;SDS011;59543;37.950;-122.338;2023-10-19T00:54:37;11.75;;;2.00;;
70010;SDS011;59543;37.950;-122.338;2023-10-19T00:57:17;26.10;;;2.35;;
70010;SDS011;59543;37.950;-122.338;2023-10-19T00:59:58;20.33;;;3.00;;
70010;SDS011;59543;37.950;-122.338;2023-10-19T01:02:37;11.40;;;1.65;;
70010;SDS011;59543;37.950;-122.338;2023-10-19T01:05:16;9.05;;;1.23;;
70010;SDS011;59543;37.950;-122.338;2023-10-19T01:07:47;8.32;;;1.50;;
70010;SDS011;59543;37.950;-122.338;2023-10-19T01:10:21;8.68;;;1.90;;
70010;SDS011;59543;37.950;-122.338;2023-10-19T01:12:48;13.07;;;1.98;;
70010;SDS011;59543;37.950;-122.338;2023-10-19T01:15:18;16.83;;;2.10;;
70010;SDS011;59543;37.950;-122.338;2023-10-19T01:17:55;10.13;;;1.65;;
70010;SDS011;59543;37.950;-122.338;2023-10-19T01:20:26;9.45;;;1.73;;
70010;SDS011;59543;37.950;-122.338;2023-10-19T01:23:00;4.60;;;1.42;;
70010;SDS011;59543;37.950;-122.338;2023-10-19T01:28:24;4.35;;;1.60;;
70010;SDS011;59543;37.950;-122.338;2023-10-19T01:31:15;6.68;;;1.85;;
70010;SDS011;59543;37.950;-122.338;2023-10-19T01:33:48;6.45;;;1.65;;
70010;SDS011;59543;37.950;-122.338;2023-10-19T01:36:15;9.68;;;2.03;;
70010;SDS011;59543;37.950;-122.338;2023-10-19T01:38:51;5.50;;;1.80;;
70010;SDS011;59543;37.950;-122.338;2023-10-19T01:41:21;7.45;;;1.83;;
70010;SDS011;59543;37.950;-122.338;2023-10-19T01:43:50;6.18;;;2.00;;
70010;SDS011;59543;37.950;-122.338;2023-10-19T01:46:21;4.75;;;1.45;;
70010;SDS011;59543;37.950;-122.338;2023-10-19T01:48:56;3.85;;;1.50;;
70010;SDS011;59543;37.950;-122.338;2023-10-19T01:51:23;7.75;;;2.03;;
70010;SDS011;59543;37.950;-122.338;2023-10-19T01:53:54;8.25;;;1.95;;
70010;SDS011;59543;37.950;-122.338;2023-10-19T01:56:21;7.18;;;1.95;;
70010;SDS011;59543;37.950;-122.338;2023-10-19T01:58:48;8.27;;;2.10;;
70010;SDS011;59543;37.950;-122.338;2023-10-19T02:01:17;5.90;;;1.95;;
70010;SDS011;59543;37.950;-122.338;2023-10-19T02:03:47;11.32;;;2.42;;
70010;SDS011;59543;37.950;-122.338;2023-10-19T02:06:34;5.35;;;2.00;;
70010;SDS011;59543;37.950;-122.338;2023-10-19T02:09:05;6.18;;;2.08;;
70010;SDS011;59543;37.950;-122.338;2023-10-19T02:11:52;8.63;;;2.20;;
70010;SDS011;59543;37.950;-122.338;2023-10-19T02:14:22;8.20;;;2.83;;
70010;SDS011;59543;37.950;-122.338;2023-10-19T02:16:51;13.13;;;2.85;;
70010;SDS011;59543;37.950;-122.338;2023-10-19T02:19:22;10.32;;;2.83;;
70010;SDS011;59543;37.950;-122.338;2023-10-19T02:21:55;15.40;;;3.72;;
70010;SDS011;59543;37.950;-122.338;2023-10-19T02:24:22;12.05;;;2.60;;
70010;SDS011;59543;37.950;-122.338;2023-10-19T02:26:50;13.60;;;2.80;;
70010;SDS011;59543;37.950;-122.338;2023-10-19T02:29:19;9.40;;;2.72;;
70010;SDS011;59543;37.950;-122.338;2023-10-19T02:31:47;12.70;;;2.90;;
70010;SDS011;59543;37.950;-122.338;2023-10-19T02:34:14;16.83;;;3.30;;
70010;SDS011;59543;37.950;-122.338;2023-10-19T02:36:40;12.15;;;4.28;;
70010;SDS011;59543;37.950;-122.338;2023-10-19T02:39:09;28.27;;;7.30;;
70010;SDS011;59543;37.950;-122.338;2023-10-19T02:41:37;16.83;;;5.75;;
70010;SDS011;59543;37.950;-122.338;2023-10-19T02:44:13;12.95;;;5.43;;
70010;SDS011;59543;37.950;-122.338;2023-10-19T11:54:55;8.55;;;2.53;;
70010;SDS011;59543;37.950;-122.338;2023-10-19T11:57:21;14.52;;;3.08;;
70010;SDS011;59543;37.950;-122.338;2023-10-19T11:59:49;6.68;;;2.67;;
70010;SDS011;59543;37.950;-122.338;2023-10-19T12:02:21;10.68;;;2.70;;
70010;SDS011;59543;37.950;-122.338;2023-10-19T12:04:47;8.35;;;2.92;;
70010;SDS011;59543;37.950;-122.338;2023-10-19T12:07:13;5.18;;;2.83;;
70010;SDS011;59543;37.950;-122.338;2023-10-19T12:09:39;7.25;;;2.80;;
70010;SDS011;59543;37.950;-122.338;2023-10-19T12:12:10;7.32;;;2.75;;
70010;SDS011;59543;37.950;-122.338;2023-10-19T12:14:36;7.32;;;2.83;;
70010;SDS011;59543;37.950;-122.338;2023-10-19T12:17:04;8.10;;;2.60;;
70010;SDS011;59543;37.950;-122.338;2023-10-19T12:19:32;8.48;;;2.67;;
70010;SDS011;59543;37.950;-122.338;2023-10-19T12:21:59;18.08;;;3.22;;
70010;SDS011;59543;37.950;-122.338;2023-10-19T12:24:28;10.63;;;2.67;;
70010;SDS011;59543;37.950;-122.338;2023-10-19T12:26:54;8.95;;;3.15;;
70010;SDS011;59543;37.950;-122.338;2023-10-19T12:29:21;10.50;;;3.10;;
70010;SDS011;59543;37.950;-122.338;2023-10-19T12:31:47;7.68;;;2.75;;
70010;SDS011;59543;37.950;-122.338;2023-10-19T12:34:14;15.45;;;2.85;;
70010;SDS011;59543;37.950;-122.338;2023-10-19T12:36:42;7.78;;;2.90;;
70010;SDS011;59543;37.950;-122.338;2023-10-19T12:39:11;8.93;;;3.10;;
70010;SDS011;59543;37.950;-122.338;2023-10-19T12:41:58;6.93;;;2.88;;
70010;SDS011;59543;37.950;-122.338;2023-10-19T12:44:24;8.70;;;3.00;;
70010;SDS011;59543;37.950;-122.338;2023-10-19T12:46:54;11.10;;;2.80;;
70010;SDS011;59543;37.950;-122.338;2023-10-19T12:49:21;10.93;;;3.17;;
70010;SDS011;59543;37.950;-122.338;2023-10-19T12:51:51;14.65;;;3.95;;
70010;SDS011;59543;37.950;-122.338;2023-10-19T12:54:18;9.55;;;3.50;;
70010;SDS011;59543;37.950;-122.338;2023-10-19T12:56:44;25.30;;;4.32;;
70010;SDS011;59543;37.950;-122.338;2023-10-19T12:59:14;16.67;;;3.45;;
70010;SDS011;59543;37.950;-122.338;2023-10-19T13:01:43;10.23;;;3.65;;
70010;SDS011;59543;37.950;-122.338;2023-10-19T13:04:14;9.48;;;3.05;;
70010;SDS011;59543;37.950;-122.338;2023-10-19T13:06:44;8.32;;;3.17;;
70010;SDS011;59543;37.950;-122.338;2023-10-19T13:09:12;9.45;;;3.05;;
70010;SDS011;59543;37.950;-122.338;2023-10-19T13:11:41;10.93;;;3.10;;
70010;SDS011;59543;37.950;-122.338;2023-10-19T13:14:09;9.15;;;3.33;;
70010;SDS011;59543;37.950;-122.338;2023-10-19T13:16:37;18.55;;;3.40;;
70010;SDS011;59543;37.950;-122.338;2023-10-19T13:19:04;10.75;;;2.97;;
70010;SDS011;59543;37.950;-122.338;2023-10-19T13:21:53;9.85;;;3.28;;
70010;SDS011;59543;37.950;-122.338;2023-10-19T13:24:19;8.85;;;3.00;;
70010;SDS011;59543;37.950;-122.338;2023-10-19T13:26:46;7.55;;;3.17;;
70010;SDS011;59543;37.950;-122.338;2023-10-19T13:29:14;11.90;;;3.65;;
70010;SDS011;59543;37.950;-122.338;2023-10-19T13:31:40;17.38;;;3.38;;
70010;SDS011;59543;37.950;-122.338;2023-10-19T13:34:14;11.63;;;3.20;;
70010;SDS011;59543;37.950;-122.338;2023-10-19T13:36:43;8.77;;;3.13;;
70010;SDS011;59543;37.950;-122.338;2023-10-19T13:39:12;8.30;;;3.22;;
70010;SDS011;59543;37.950;-122.338;2023-10-19T13:41:42;11.55;;;3.70;;
70010;SDS011;59543;37.950;-122.338;2023-10-19T13:44:09;7.70;;;3.30;;
70010;SDS011;59543;37.950;-122.338;2023-10-19T13:46:37;14.20;;;3.67;;
70010;SDS011;59543;37.950;-122.338;2023-10-19T13:49:03;11.23;;;3.53;;
70010;SDS011;59543;37.950;-122.338;2023-10-19T13:51:31;16.80;;;3.63;;
70010;SDS011;59543;37.950;-122.338;2023-10-19T13:53:58;9.90;;;3.45;;
70010;SDS011;59543;37.950;-122.338;2023-10-19T13:56:24;11.18;;;3.45;;
70010;SDS011;59543;37.950;-122.338;2023-10-19T13:58:51;7.78;;;3.80;;
70010;SDS011;59543;37.950;-122.338;2023-10-19T14:01:18;16.20;;;4.13;;
70010;SDS011;59543;37.950;-122.338;2023-10-19T14:03:46;12.95;;;4.43;;
70010;SDS011;59543;37.950;-122.338;2023-10-19T14:06:12;11.45;;;4.35;;
70010;SDS011;59543;37.950;-122.338;2023-10-19T14:08:39;9.15;;;4.82;;
70010;SDS011;59543;37.950;-122.338;2023-10-19T14:11:05;17.98;;;4.50;;
70010;SDS011;59543;37.950;-122.338;2023-10-19T14:13:33;13.48;;;4.97;;
70010;SDS011;59543;37.950;-122.338;2023-10-19T14:16:04;10.63;;;4.50;;
70010;SDS011;59543;37.950;-122.338;2023-10-19T14:18:34;15.05;;;4.22;;
70010;SDS011;59543;37.950;-122.338;2023-10-19T14:21:10;10.38;;;4.30;;
70010;SDS011;59543;37.950;-122.338;2023-10-19T14:23:39;11.60;;;3.70;;
70010;SDS011;59543;37.950;-122.338;2023-10-19T14:26:06;13.20;;;4.22;;
70010;SDS011;59543;37.950;-122.338;2023-10-19T14:28:34;14.90;;;4.30;;
70010;SDS011;59543;37.950;-122.338;2023-10-19T14:31:01;13.27;;;4.22;;
70010;SDS011;59543;37.950;-122.338;2023-10-19T14:33:33;11.60;;;4.28;;
70010;SDS011;59543;37.950;-122.338;2023-10-19T14:36:01;9.65;;;3.80;;
70010;SDS011;59543;37.950;-122.338;2023-10-19T14:38:28;7.55;;;4.32;;
70010;SDS011;59543;37.950;-122.338;2023-10-19T14:40:54;12.38;;;4.03;;
70010;SDS011;59543;37.950;-122.338;2023-10-19T14:43:21;11.88;;;3.80;;
70010;SDS011;59543;37.950;-122.338;2023-10-19T14:45:47;14.25;;;4.03;;
70010;SDS011;59543;37.950;-122.338;2023-10-19T14:48:13;12.93;;;3.75;;
70010;SDS011;59543;37.950;-122.338;2023-10-19T14:50:40;13.95;;;4.18;;
70010;SDS011;59543;37.950;-122.338;2023-10-19T14:53:08;13.82;;;4.03;;
70010;SDS011;59543;37.950;-122.338;2023-10-19T14:55:34;17.88;;;3.67;;
70010;SDS011;59543;37.950;-122.338;2023-10-19T14:58:01;23.67;;;4.72;;
70010;SDS011;59543;37.950;-122.338;2023-10-19T15:00:28;18.42;;;4.32;;
70010;SDS011;59543;37.950;-122.338;2023-10-19T15:02:56;29.58;;;5.50;;
70010;SDS011;59543;37.950;-122.338;2023-10-19T15:05:28;128.65;;;8.07;;
70010;SDS011;59543;37.950;-122.338;2023-10-19T15:07:54;93.57;;;6.72;;
70010;SDS011;59543;37.950;-122.338;2023-10-19T15:10:25;17.77;;;4.50;;
70010;SDS011;59543;37.950;-122.338;2023-10-19T15:12:53;14.50;;;4.13;;
70010;SDS011;59543;37.950;-122.338;2023-10-19T15:15:21;14.52;;;4.00;;
70010;SDS011;59543;37.950;-122.338;2023-10-19T15:17:48;15.95;;;4.28;;
70010;SDS011;59543;37.950;-122.338;2023-10-19T15:20:21;19.17;;;4.30;;
70010;SDS011;59543;37.950;-122.338;2023-10-19T15:22:50;76.85;;;8.00;;
70010;SDS011;59543;37.950;-122.338;2023-10-19T15:25:18;18.08;;;4.65;;
70010;SDS011;59543;37.950;-122.338;2023-10-19T15:27:45;16.13;;;4.32;;
70010;SDS011;59543;37.950;-122.338;2023-10-19T15:30:15;19.80;;;4.60;;
70010;SDS011;59543;37.950;-122.338;2023-10-19T15:32:43;18.27;;;4.15;;
70010;SDS011;59543;37.950;-122.338;2023-10-19T15:35:10;22.38;;;4.40;;
70010;SDS011;59543;37.950;-122.338;2023-10-19T15:37:39;19.45;;;5.03;;
70010;SDS011;59543;37.950;-122.338;2023-10-19T15:40:06;17.75;;;4.25;;
70010;SDS011;59543;37.950;-122.338;2023-10-19T15:42:40;18.50;;;4.05;;
70010;SDS011;59543;37.950;-122.338;2023-10-19T15:45:14;18.08;;;5.00;;
70010;SDS011;59543;37.950;-122.338;2023-10-19T15:47:44;17.30;;;3.72;;
70010;SDS011;59543;37.950;-122.338;2023-10-19T15:50:14;10.13;;;3.80;;
70010;SDS011;59543;37.950;-122.338;2023-10-19T15:52:42;21.30;;;4.68;;
70010;SDS011;59543;37.950;-122.338;2023-10-19T15:55:10;24.90;;;4.68;;
70010;SDS011;59543;37.950;-122.338;2023-10-19T15:57:40;13.27;;;4.68;;
70010;SDS011;59543;37.950;-122.338;2023-10-19T16:00:08;20.40;;;4.68;;
70010;SDS011;59543;37.950;-122.338;2023-10-19T16:02:39;19.55;;;4.70;;
70010;SDS011;59543;37.950;-122.338;2023-10-19T16:05:05;14.68;;;4.70;;
70010;SDS011;59543;37.950;-122.338;2023-10-19T16:07:33;14.27;;;4.82;;
70010;SDS011;59543;37.950;-122.338;2023-10-19T16:10:01;13.23;;;4.90;;
70010;SDS011;59543;37.950;-122.338;2023-10-19T16:12:29;14.60;;;4.88;;
70010;SDS011;59543;37.950;-122.338;2023-10-19T16:14:56;32.20;;;5.80;;
70010;SDS011;59543;37.950;-122.338;2023-10-19T16:17:23;33.92;;;7.35;;
70010;SDS011;59543;37.950;-122.338;2023-10-19T16:19:49;19.88;;;5.18;;
70010;SDS011;59543;37.950;-122.338;2023-10-19T16:22:16;17.70;;;5.57;;
70010;SDS011;59543;37.950;-122.338;2023-10-19T16:24:43;31.73;;;6.10;;
70010;SDS011;59543;37.950;-122.338;2023-10-19T16:27:09;25.40;;;5.30;;
70010;SDS011;59543;37.950;-122.338;2023-10-19T16:29:35;15.43;;;4.55;;
70010;SDS011;59543;37.950;-122.338;2023-10-19T16:32:03;19.58;;;4.32;;
70010;SDS011;59543;37.950;-122.338;2023-10-19T16:34:30;19.65;;;5.55;;
70010;SDS011;59543;37.950;-122.338;2023-10-19T16:36:56;18.08;;;5.03;;
70010;SDS011;59543;37.950;-122.338;2023-10-19T16:39:22;24.55;;;6.00;;
70010;SDS011;59543;37.950;-122.338;2023-10-19T16:41:49;12.27;;;4.45;;
70010;SDS011;59543;37.950;-122.338;2023-10-19T16:44:16;27.45;;;5.03;;
70010;SDS011;59543;37.950;-122.338;2023-10-19T16:46:43;19.52;;;4.60;;
70010;SDS011;59543;37.950;-122.338;2023-10-19T16:49:09;18.88;;;5.22;;
70010;SDS011;59543;37.950;-122.338;2023-10-19T16:51:35;20.52;;;4.85;;
70010;SDS011;59543;37.950;-122.338;2023-10-19T16:54:09;23.40;;;4.90;;
70010;SDS011;59543;37.950;-122.338;2023-10-19T16:56:36;19.13;;;5.15;;
70010;SDS011;59543;37.950;-122.338;2023-10-19T16:59:05;28.60;;;5.32;;
70010;SDS011;59543;37.950;-122.338;2023-10-19T17:01:33;20.48;;;5.40;;
70010;SDS011;59543;37.950;-122.338;2023-10-19T17:03:59;22.63;;;4.70;;
70010;SDS011;59543;37.950;-122.338;2023-10-19T17:06:26;16.55;;;4.75;;
70010;SDS011;59543;37.950;-122.338;2023-10-19T17:08:53;23.70;;;5.15;;
70010;SDS011;59543;37.950;-122.338;2023-10-19T17:11:19;17.70;;;4.70;;
70010;SDS011;59543;37.950;-122.338;2023-10-19T17:13:45;21.50;;;5.50;;
70010;SDS011;59543;37.950;-122.338;2023-10-19T17:16:14;28.30;;;6.00;;
70010;SDS011;59543;37.950;-122.338;2023-10-19T17:18:40;15.80;;;4.50;;
70010;SDS011;59543;37.950;-122.338;2023-10-19T17:21:06;18.15;;;5.43;;
70010;SDS011;59543;37.950;-122.338;2023-10-19T17:23:33;27.70;;;5.13;;
70010;SDS011;59543;37.950;-122.338;2023-10-19T17:26:01;18.65;;;4.70;;
70010;SDS011;59543;37.950;-122.338;2023-10-19T17:28:27;26.35;;;5.90;;
70010;SDS011;59543;37.950;-122.338;2023-10-19T17:30:53;25.80;;;5.90;;
70010;SDS011;59543;37.950;-122.338;2023-10-19T17:33:20;13.73;;;5.00;;
70010;SDS011;59543;37.950;-122.338;2023-10-19T17:35:47;28.13;;;5.43;;
70010;SDS011;59543;37.950;-122.338;2023-10-19T17:38:15;22.45;;;5.30;;
70010;SDS011;59543;37.950;-122.338;2023-10-19T17:40:41;29.25;;;5.40;;
70010;SDS011;59543;37.950;-122.338;2023-10-19T17:43:07;23.10;;;4.85;;
70010;SDS011;59543;37.950;-122.338;2023-10-19T17:45:36;29.77;;;5.50;;
70010;SDS011;59543;37.950;-122.338;2023-10-19T17:48:03;21.13;;;5.85;;
70010;SDS011;59543;37.950;-122.338;2023-10-19T17:50:29;22.13;;;5.15;;
70010;SDS011;59543;37.950;-122.338;2023-10-19T17:52:57;19.17;;;4.78;;
70010;SDS011;59543;37.950;-122.338;2023-10-19T17:55:26;23.40;;;5.10;;
70010;SDS011;59543;37.950;-122.338;2023-10-19T17:57:52;24.77;;;4.72;;
70010;SDS011;59543;37.950;-122.338;2023-10-19T18:00:19;21.35;;;4.97;;
70010;SDS011;59543;37.950;-122.338;2023-10-19T18:02:45;28.58;;;5.20;;
70010;SDS011;59543;37.950;-122.338;2023-10-19T18:05:11;20.85;;;4.78;;
70010;SDS011;59543;37.950;-122.338;2023-10-19T18:07:39;17.65;;;4.82;;
70010;SDS011;59543;37.950;-122.338;2023-10-19T18:10:06;25.67;;;4.82;;
70010;SDS011;59543;37.950;-122.338;2023-10-19T18:12:33;26.55;;;5.35;;
70010;SDS011;59543;37.950;-122.338;2023-10-19T18:15:00;26.00;;;5.65;;
70010;SDS011;59543;37.950;-122.338;2023-10-19T18:17:27;34.25;;;5.70;;
70010;SDS011;59543;37.950;-122.338;2023-10-19T18:19:53;17.27;;;4.75;;
70010;SDS011;59543;37.950;-122.338;2023-10-19T18:22:20;22.55;;;5.20;;
70010;SDS011;59543;37.950;-122.338;2023-10-19T18:24:46;27.77;;;5.28;;
70010;SDS011;59543;37.950;-122.338;2023-10-19T18:27:13;19.92;;;5.00;;
70010;SDS011;59543;37.950;-122.338;2023-10-19T18:29:40;17.65;;;5.13;;
70010;SDS011;59543;37.950;-122.338;2023-10-19T18:32:10;14.57;;;4.75;;
70010;SDS011;59543;37.950;-122.338;2023-10-19T18:34:37;32.92;;;6.00;;
70010;SDS011;59543;37.950;-122.338;2023-10-19T18:37:03;18.40;;;5.13;;
70010;SDS011;59543;37.950;-122.338;2023-10-19T18:39:31;21.88;;;5.60;;
70010;SDS011;59543;37.950;-122.338;2023-10-19T18:41:57;23.92;;;6.13;;
70010;SDS011;59543;37.950;-122.338;2023-10-19T18:44:23;20.80;;;5.32;;
70010;SDS011;59543;37.950;-122.338;2023-10-19T18:46:50;22.33;;;6.10;;
70010;SDS011;59543;37.950;-122.338;2023-10-19T18:49:16;23.05;;;5.80;;
70010;SDS011;59543;37.950;-122.338;2023-10-19T18:51:42;22.05;;;5.95;;
70010;SDS011;59543;37.950;-122.338;2023-10-19T18:54:08;25.40;;;6.60;;
70010;SDS011;59543;37.950;-122.338;2023-10-19T18:56:35;39.97;;;7.03;;
70010;SDS011;59543;37.950;-122.338;2023-10-19T18:59:02;22.80;;;6.57;;
70010;SDS011;59543;37.950;-122.338;2023-10-19T19:01:29;37.53;;;6.90;;
70010;SDS011;59543;37.950;-122.338;2023-10-19T19:03:55;23.60;;;6.20;;
70010;SDS011;59543;37.950;-122.338;2023-10-19T19:06:21;22.42;;;6.57;;
70010;SDS011;59543;37.950;-122.338;2023-10-19T19:08:48;25.38;;;6.20;;
70010;SDS011;59543;37.950;-122.338;2023-10-19T19:11:14;18.95;;;6.10;;
70010;SDS011;59543;37.950;-122.338;2023-10-19T19:13:43;21.63;;;6.28;;
70010;SDS011;59543;37.950;-122.338;2023-10-19T19:16:10;18.60;;;6.35;;
70010;SDS011;59543;37.950;-122.338;2023-10-19T19:18:39;21.30;;;5.80;;
70010;SDS011;59543;37.950;-122.338;2023-10-19T19:21:07;24.17;;;6.10;;
70010;SDS011;59543;37.950;-122.338;2023-10-19T19:23:34;21.05;;;6.15;;
70010;SDS011;59543;37.950;-122.338;2023-10-19T19:26:01;20.55;;;5.75;;
70010;SDS011;59543;37.950;-122.338;2023-10-19T19:28:28;16.58;;;5.53;;
70010;SDS011;59543;37.950;-122.338;2023-10-19T19:31:01;15.60;;;5.40;;
70010;SDS011;59543;37.950;-122.338;2023-10-19T19:33:28;22.08;;;5.93;;
70010;SDS011;59543;37.950;-122.338;2023-10-19T19:35:54;15.20;;;5.07;;
70010;SDS011;59543;37.950;-122.338;2023-10-19T19:38:23;20.58;;;5.68;;
70010;SDS011;59543;37.950;-122.338;2023-10-19T19:40:50;26.17;;;4.85;;
70010;SDS011;59543;37.950;-122.338;2023-10-19T19:43:19;15.07;;;5.07;;
70010;SDS011;59543;37.950;-122.338;2023-10-19T19:45:46;21.70;;;5.45;;
70010;SDS011;59543;37.950;-122.338;2023-10-19T19:48:12;19.60;;;5.47;;
70010;SDS011;59543;37.950;-122.338;2023-10-19T19:50:39;21.63;;;4.80;;
70010;SDS011;59543;37.950;-122.338;2023-10-19T19:53:09;22.13;;;5.80;;
70010;SDS011;59543;37.950;-122.338;2023-10-19T19:55:39;13.93;;;4.63;;
70010;SDS011;59543;37.950;-122.338;2023-10-19T19:58:06;15.18;;;5.40;;
70010;SDS011;59543;37.950;-122.338;2023-10-19T20:00:33;17.73;;;4.88;;
70010;SDS011;59543;37.950;-122.338;2023-10-19T20:03:01;23.13;;;4.90;;
70010;SDS011;59543;37.950;-122.338;2023-10-19T20:05:29;14.98;;;5.05;;
70010;SDS011;59543;37.950;-122.338;2023-10-19T20:07:59;15.82;;;5.70;;
70010;SDS011;59543;37.950;-122.338;2023-10-19T20:10:36;29.63;;;5.72;;
70010;SDS011;59543;37.950;-122.338;2023-10-19T20:13:04;18.02;;;5.65;;
70010;SDS011;59543;37.950;-122.338;2023-10-19T20:15:31;24.75;;;5.80;;
70010;SDS011;59543;37.950;-122.338;2023-10-19T20:17:59;16.02;;;4.60;;
70010;SDS011;59543;37.950;-122.338;2023-10-19T20:20:26;13.50;;;5.43;;
70010;SDS011;59543;37.950;-122.338;2023-10-19T20:22:54;18.60;;;5.55;;
70010;SDS011;59543;37.950;-122.338;2023-10-19T20:25:24;20.42;;;4.78;;
70010;SDS011;59543;37.950;-122.338;2023-10-19T20:27:52;17.38;;;5.82;;
70010;SDS011;59543;37.950;-122.338;2023-10-19T20:30:19;20.08;;;5.90;;
70010;SDS011;59543;37.950;-122.338;2023-10-19T20:32:47;18.48;;;6.05;;
70010;SDS011;59543;37.950;-122.338;2023-10-19T20:35:15;19.80;;;5.53;;
70010;SDS011;59543;37.950;-122.338;2023-10-19T20:37:46;19.70;;;5.43;;
70010;SDS011;59543;37.950;-122.338;2023-10-19T20:40:13;17.88;;;6.03;;
70010;SDS011;59543;37.950;-122.338;2023-10-19T20:42:47;28.30;;;6.28;;
70010;SDS011;59543;37.950;-122.338;2023-10-19T20:45:14;22.58;;;5.68;;
70010;SDS011;59543;37.950;-122.338;2023-10-19T20:47:50;22.02;;;5.43;;
70010;SDS011;59543;37.950;-122.338;2023-10-19T20:50:23;14.65;;;5.70;;
70010;SDS011;59543;37.950;-122.338;2023-10-19T20:52:51;27.55;;;6.05;;
70010;SDS011;59543;37.950;-122.338;2023-10-19T20:55:18;24.83;;;7.05;;
70010;SDS011;59543;37.950;-122.338;2023-10-19T20:57:44;17.27;;;6.60;;
70010;SDS011;59543;37.950;-122.338;2023-10-19T21:00:12;18.35;;;6.25;;
70010;SDS011;59543;37.950;-122.338;2023-10-19T21:02:39;17.45;;;5.97;;
70010;SDS011;59543;37.950;-122.338;2023-10-19T21:05:07;37.05;;;6.95;;
70010;SDS011;59543;37.950;-122.338;2023-10-19T21:07:40;22.25;;;6.00;;
70010;SDS011;59543;37.950;-122.338;2023-10-19T21:10:07;20.63;;;6.13;;
70010;SDS011;59543;37.950;-122.338;2023-10-19T21:12:39;13.93;;;6.45;;
70010;SDS011;59543;37.950;-122.338;2023-10-19T21:15:07;16.05;;;6.32;;
70010;SDS011;59543;37.950;-122.338;2023-10-19T21:17:38;26.10;;;6.07;;
70010;SDS011;59543;37.950;-122.338;2023-10-19T21:20:23;18.50;;;6.27;;
70010;SDS011;59543;37.950;-122.338;2023-10-19T21:22:50;13.75;;;5.80;;
70010;SDS011;59543;37.950;-122.338;2023-10-19T21:25:18;19.55;;;6.18;;
70010;SDS011;59543;37.950;-122.338;2023-10-19T21:27:45;13.80;;;6.32;;
70010;SDS011;59543;37.950;-122.338;2023-10-19T21:30:13;20.35;;;6.18;;
70010;SDS011;59543;37.950;-122.338;2023-10-19T21:32:40;20.77;;;6.47;;
70010;SDS011;59543;37.950;-122.338;2023-10-19T21:35:14;22.98;;;7.43;;
70010;SDS011;59543;37.950;-122.338;2023-10-19T21:37:40;19.20;;;6.43;;
70010;SDS011;59543;37.950;-122.338;2023-10-19T21:40:07;26.60;;;6.85;;
70010;SDS011;59543;37.950;-122.338;2023-10-19T21:42:34;15.25;;;5.78;;
70010;SDS011;59543;37.950;-122.338;2023-10-19T21:45:00;19.20;;;6.22;;
70010;SDS011;59543;37.950;-122.338;2023-10-19T21:47:26;30.25;;;6.28;;
70010;SDS011;59543;37.950;-122.338;2023-10-19T21:49:53;17.50;;;7.00;;
70010;SDS011;59543;37.950;-122.338;2023-10-19T21:52:19;19.73;;;6.35;;
70010;SDS011;59543;37.950;-122.338;2023-10-19T21:54:51;22.58;;;6.88;;
70010;SDS011;59543;37.950;-122.338;2023-10-19T21:57:19;13.80;;;6.13;;
70010;SDS011;59543;37.950;-122.338;2023-10-19T21:59:45;16.30;;;6.10;;
70010;SDS011;59543;37.950;-122.338;2023-10-19T22:02:12;17.48;;;6.47;;
70010;SDS011;59543;37.950;-122.338;2023-10-19T22:04:41;15.77;;;6.43;;
70010;SDS011;59543;37.950;-122.338;2023-10-19T22:07:07;21.75;;;7.25;;
70010;SDS011;59543;37.950;-122.338;2023-10-19T22:09:33;22.58;;;7.03;;
70010;SDS011;59543;37.950;-122.338;2023-10-19T22:12:00;22.13;;;6.80;;
70010;SDS011;59543;37.950;-122.338;2023-10-19T22:14:29;19.85;;;6.50;;
70010;SDS011;59543;37.950;-122.338;2023-10-19T22:16:56;18.23;;;6.57;;
70010;SDS011;59543;37.950;-122.338;2023-10-19T22:19:23;19.45;;;6.50;;
70010;SDS011;59543;37.950;-122.338;2023-10-19T22:21:53;17.10;;;6.35;;
70010;SDS011;59543;37.950;-122.338;2023-10-19T22:24:20;26.20;;;5.93;;
70010;SDS011;59543;37.950;-122.338;2023-10-19T22:26:47;22.38;;;6.78;;
70010;SDS011;59543;37.950;-122.338;2023-10-19T22:29:16;16.42;;;6.78;;
70010;SDS011;59543;37.950;-122.338;2023-10-19T22:31:43;23.23;;;6.35;;
70010;SDS011;59543;37.950;-122.338;2023-10-19T22:34:11;16.67;;;6.20;;
70010;SDS011;59543;37.950;-122.338;2023-10-19T22:36:38;16.90;;;6.15;;
70010;SDS011;59543;37.950;-122.338;2023-10-19T22:39:06;21.25;;;6.35;;
70010;SDS011;59543;37.950;-122.338;2023-10-19T22:41:34;22.33;;;6.60;;
70010;SDS011;59543;37.950;-122.338;2023-10-19T22:44:03;14.43;;;5.53;;
70010;SDS011;59543;37.950;-122.338;2023-10-19T22:46:32;21.10;;;6.65;;
70010;SDS011;59543;37.950;-122.338;2023-10-19T22:49:00;23.20;;;7.00;;
70010;SDS011;59543;37.950;-122.338;2023-10-19T22:51:26;13.90;;;6.10;;
70010;SDS011;59543;37.950;-122.338;2023-10-19T22:53:52;21.50;;;6.13;;
70010;SDS011;59543;37.950;-122.338;2023-10-19T22:56:18;24.13;;;5.82;;
70010;SDS011;59543;37.950;-122.338;2023-10-19T22:58:45;22.85;;;6.22;;
70010;SDS011;59543;37.950;-122.338;2023-10-19T23:01:11;16.08;;;5.57;;
70010;SDS011;59543;37.950;-122.338;2023-10-19T23:03:38;17.90;;;5.97;;
70010;SDS011;59543;37.950;-122.338;2023-10-19T23:06:04;19.67;;;5.82;;
70010;SDS011;59543;37.950;-122.338;2023-10-19T23:08:30;24.80;;;5.70;;
70010;SDS011;59543;37.950;-122.338;2023-10-19T23:11:03;18.90;;;5.60;;
70010;SDS011;59543;37.950;-122.338;2023-10-19T23:13:33;22.58;;;6.05;;
70010;SDS011;59543;37.950;-122.338;2023-10-19T23:16:07;21.33;;;6.15;;
70010;SDS011;59543;37.950;-122.338;2023-10-19T23:18:33;23.95;;;6.50;;
70010;SDS011;59543;37.950;-122.338;2023-10-19T23:21:03;25.08;;;6.63;;